Tiempo atmosférico en la estación meteorológica de Salobreña, Granada (20 m.)



Fecha
DESCASC
Temp. máxima en grados centígrados (hora)
DESCASC
Temp. mínima en grados centígrados (hora)
DESCASC
Temp. media en grados centígrados
DESCASC
Racha de viento máxima en m/sg (hora)
DESCASC
Velocidad máxima media en intervalos de 10 minutos(hora)
DESCASC
Precipitaciones diarias en mm
DESCASC
Precipitaciones de 00:00 a 06:00 en mm
DESCASC
Precipitaciones de 06:00 a 12:00 en mm
DESCASC
Precipitaciones de 12:00 a 18:00 en mm
DESCASC
Precipitaciones de 18:00 a 24:00 en mm
DESCASC
14-02-2019 17 (15:10) 6.8 (00:10) 11.9 6.67 (14:50) 3.89 (17:00) 0 0 0 0 0
13-02-2019 17.6 (13:40) 7 (23:59) 12.3 8.61 (14:40) 5 (14:20) 0 0 0 0 0
12-02-2019 17.6 (13:40) 8.5 (02:30) 13.1 10 (14:10) 5.83 (13:50) 0 0 0 0 0
11-02-2019 19.4 (15:30) 10.1 (23:10) 14.8 11.39 (00:40) 6.11 (00:40) 0 0 0 0 0
10-02-2019 19.6 (17:20) 6 (00:00) 12.8 10.28 (20:10) 6.11 (18:50) 0 0 0 0 0
09-02-2019 17.5 (14:10) 5 (00:00) 11.3 4.17 (15:30) 2.5 (15:30) 0 0 0 0 0
08-02-2019 17.4 (15:20) 5.1 (00:00) 11.2 4.72 (14:30) 3.33 (14:10) 0 0 0 0 0
07-02-2019 18 (14:00) 4.6 (00:00) 11.3 6.11 (11:00) 3.06 (11:00) 0 0 0 0 0
06-02-2019 18.7 (15:10) 5.2 (00:00) 12 5.28 (08:10) 3.06 (01:40) 0 0 0 0 0
05-02-2019 17 (15:40) 5.4 (00:00) 11.2 5 (14:50) 3.06 (05:10) 0 0 0 0 0
04-02-2019 17.1 (12:10) 5.9 (00:00) 11.5 9.72 (09:00) 6.39 (09:30) 0 0 0 0 0
03-02-2019 17.2 (12:10) 6.5 (00:00) 11.9 13.61 (02:50) 7.78 (00:30) 0 0 0 0 0
02-02-2019 -- (--) -- (--) -- -- (--) -- (--) 0 0 0 0 0
01-02-2019 18.1 (15:00) 10.2 (00:00) 14.2 21.39 (07:40) 9.72 (10:20) 30 9.8 19.8 0 0.4
31-01-2019 17.4 (13:30) 11.2 (00:00) 14.3 12.22 (23:00) 6.94 (11:10) 0 0 0 0 0
30-01-2019 18.7 (13:50) 12.7 (00:00) 15.7 13.61 (12:10) 7.78 (12:10) 0 0 0 0 0
29-01-2019 20 (13:30) 11.7 (00:00) 15.8 19.44 (15:00) 10 (14:30) 0 0 0 0 0
28-01-2019 20.4 (15:30) 9.9 (00:00) 15.1 19.72 (19:50) 10.83 (22:20) 0 0 0 0 0
27-01-2019 21.4 (15:20) 6.1 (00:00) 13.7 18.61 (20:00) 9.44 (20:40) 0 0 0 0 0
26-01-2019 18.5 (14:00) 7.8 (00:00) 13.2 8.61 (06:30) 4.72 (02:00) 0 0 0 0 0
25-01-2019 21.1 (11:50) 8.4 (00:00) 14.8 9.44 (04:20) 5.28 (10:10) 0 0 0 0 0
24-01-2019 21.5 (15:50) 14.9 (00:00) 18.2 23.33 (06:50) 13.61 (07:00) 0 0 0 0 0
23-01-2019 16.3 (23:00) 12.9 (00:00) 14.6 17.5 (17:50) 8.61 (23:59) 0 0 0 0 0
22-01-2019 16.5 (14:10) 5 (00:00) 10.8 12.78 (13:30) 7.78 (13:40) 0 0 0 0 0
21-01-2019 18.5 (15:10) 10.1 (00:00) 14.3 12.22 (17:30) 6.11 (16:40) 0 0 0 0 0
20-01-2019 19.6 (14:20) 8.4 (00:00) 14 20.56 (18:00) 11.67 (17:40) 1.4 1.2 0.2 0 0
19-01-2019 15.6 (13:10) 10.9 (00:00) 13.3 13.06 (06:10) 6.11 (06:10) 0 0 0 0 0

Gráficas

Temp. máximas Temp. mínimas Temp. medias Precipitaciones Rachas de viento máximas Velocidades máximas media en intervalos de 10 minutos

Datos horarios

Fecha y hora oficial Temperatura (ºC) Velocidad del viento (km/h) Dirección del viento Racha (km/h) Dirección de racha Precipitación (mm) Presión (hPa) Tendencia (hPa) Humedad (%)
2019-02-17 23:00:00 -- -- -- -- -- -- -- -- --
2019-02-17 22:00:00 9.3 6 Nordeste 9 Nordeste 0 -- -- 91
2019-02-17 21:00:00 10.4 7 Norte 10 Norte 0 -- -- 87
2019-02-17 20:00:00 12.8 4 Norte 8 Oeste 0 -- -- 82
2019-02-17 19:00:00 15 4 Oeste 9 Sudoeste 0 -- -- 70
2019-02-17 18:00:00 15.9 6 Sudoeste 12 Sudoeste 0 -- -- 65
2019-02-17 17:00:00 16.7 7 Sudoeste 14 Sudoeste 0 -- -- 65
2019-02-17 16:00:00 17.2 9 Sudoeste 19 Oeste 0 -- -- 63
2019-02-17 15:00:00 17.5 10 Sudoeste 24 Sudoeste 0 -- -- 63
2019-02-17 14:00:00 16.8 14 Sudoeste 29 Sudoeste 0 -- -- 66
2019-02-17 13:00:00 16.9 15 Oeste 33 Noroeste 0 -- -- 67
2019-02-17 12:00:00 16.5 17 Oeste 33 Oeste 0 -- -- 69
2019-02-17 11:00:00 16.3 2 Oeste 14 Nordeste 0 -- -- 64
2019-02-17 10:00:00 12.9 7 Nordeste 15 Nordeste 0 -- -- 70
2019-02-17 09:00:00 9.2 9 Nordeste 14 Nordeste 0 -- -- 86
2019-02-17 08:00:00 8.3 6 Nordeste 15 Nordeste 0 -- -- 87
2019-02-17 07:00:00 7.5 7 Nordeste 13 Nordeste 0 -- -- 92
2019-02-17 06:00:00 7.4 8 Nordeste 12 Nordeste 0 -- -- 93
2019-02-17 05:00:00 7.5 8 Nordeste 12 Norte 0 -- -- 91
2019-02-17 04:00:00 7.9 7 Norte 14 Norte 0 -- -- 91
2019-02-17 03:00:00 8 4 Norte 13 Nordeste 0 -- -- 91
2019-02-17 02:00:00 8.4 6 Norte 13 Norte 0 -- -- 92
2019-02-17 01:00:00 8.6 7 Norte 10 Norte 0 -- -- 93
2019-02-17 00:00:00 8.7 8 Nordeste 11 Norte 0 -- -- 93
2019-02-16 23:00:00 8.8 7 Norte 11 Norte 0 -- -- 93
2019-02-16 22:00:00 9.1 5 Norte 15 Nordeste 0 -- -- 91
2019-02-16 21:00:00 10.3 8 Nordeste 14 Norte 0 -- -- 89
2019-02-16 20:00:00 13 4 Nordeste 14 Sudeste 0 -- -- 80
2019-02-16 19:00:00 14.3 0 Calma 19 Sudeste 0 -- -- 78
2019-02-16 18:00:00 15.6 9 Sur 23 Sudeste 0 -- -- 72
2019-02-16 17:00:00 16.1 13 Sudeste 28 Sur 0 -- -- 67
2019-02-16 16:00:00 17.5 15 Sudeste 27 Sur 0 -- -- 61
2019-02-16 15:00:00 18.4 15 Sur 31 Sur 0 -- -- 56
2019-02-16 14:00:00 18.8 12 Sudeste 25 Sur 0 -- -- 56
2019-02-16 13:00:00 18.5 11 Sudeste 25 Sur 0 -- -- 58
2019-02-16 12:00:00 18 3 Sudoeste 12 Sudoeste 0 -- -- 58
2019-02-16 11:00:00 17 6 Sudoeste 17 Oeste 0 -- -- 61
2019-02-16 10:00:00 14 3 Sur 11 Nordeste 0 -- -- 72
2019-02-16 09:00:00 8.2 5 Nordeste 13 Nordeste 0 -- -- 89
2019-02-16 08:00:00 7 8 Nordeste 17 Nordeste 0 -- -- 89
2019-02-16 07:00:00 7.1 9 Nordeste 16 Nordeste 0 -- -- 91
2019-02-16 06:00:00 7.6 8 Nordeste 17 Nordeste 0 -- -- 92
2019-02-16 05:00:00 7.8 9 Nordeste 13 Nordeste 0 -- -- 94
2019-02-16 04:00:00 7.8 9 Nordeste 13 Nordeste 0 -- -- 95
2019-02-16 03:00:00 8.4 8 Nordeste 14 Norte 0 -- -- 95
2019-02-16 02:00:00 8.2 9 Norte 15 Nordeste 0 -- -- 95
2019-02-16 01:00:00 8.7 7 Nordeste 12 Nordeste 0 -- -- 95
2019-02-16 00:00:00 8.7 5 Nordeste 13 Nordeste 0 -- -- 93
2019-02-15 23:00:00 9.1 8 Nordeste 12 Nordeste 0 -- -- 93
2019-02-15 22:00:00 10 9 Nordeste 12 Nordeste 0 -- -- 92
2019-02-15 21:00:00 11.1 5 Nordeste 14 Nordeste 0 -- -- 87
2019-02-15 20:00:00 11.7 8 Nordeste 11 Nordeste 0 -- -- 87
2019-02-15 19:00:00 14.8 2 Nordeste 8 Sudeste 0 -- -- 76
2019-02-15 18:00:00 15.3 7 Sur 20 Sur 0 -- -- 73
2019-02-15 17:00:00 15.5 10 Sur 21 Sur 0 -- -- 71
2019-02-15 16:00:00 16 9 Sudeste 22 Sur 0 -- -- 68
2019-02-15 15:00:00 17.1 6 Sudeste 24 Sur 0 -- -- 63
2019-02-15 14:00:00 15.5 9 Sudeste 19 Sudeste 0 -- -- 67
2019-02-15 13:00:00 15.2 15 Sur 24 Sudeste 0 -- -- 72
2019-02-15 12:00:00 16 15 Sur 24 Sur 0 -- -- 69
2019-02-15 11:00:00 16.2 3 Sur 10 Este 0 -- -- 68
2019-02-15 10:00:00 13.3 6 Nordeste 13 Nordeste 0 -- -- 72
2019-02-15 09:00:00 9.9 7 Nordeste 15 Nordeste 0 -- -- 85
2019-02-15 08:00:00 9.3 8 Nordeste 14 Nordeste 0 -- -- 85
2019-02-15 07:00:00 10.3 8 Nordeste 14 Nordeste 0 -- -- 82
2019-02-15 06:00:00 10.7 7 Nordeste 11 Nordeste 0 -- -- 83
2019-02-15 05:00:00 9.9 6 Nordeste 10 Nordeste 0 -- -- 90
2019-02-15 04:00:00 9.5 7 Nordeste 10 Nordeste 0 -- -- 91
2019-02-15 03:00:00 11.1 4 Nordeste 5 Nordeste 0 -- -- 90
2019-02-15 02:00:00 12.4 3 Noroeste 5 Norte 0 -- -- 90
2019-02-15 01:00:00 13 3 Sudeste 5 Sudeste 0 -- -- 86
2019-02-15 00:00:00 13.3 0 Calma 6 Sudeste 0 -- -- 86
2019-02-14 23:00:00 13.3 0 Calma 4 Norte 0 -- -- 87
2019-02-14 22:00:00 13.2 2 Nordeste 6 Norte 0 -- -- 85
2019-02-14 21:00:00 13.3 3 Norte 4 Norte 0 -- -- 85
2019-02-14 20:00:00 14.2 0 Calma 12 Sudeste 0 -- -- 77
2019-02-14 19:00:00 14.3 6 Sudeste 15 Sur 0 -- -- 75
2019-02-14 18:00:00 14.6 12 Sur 20 Sur 0 -- -- 72
2019-02-14 17:00:00 15.2 14 Sur 24 Sudeste 0 -- -- 71
2019-02-14 16:00:00 16.5 14 Sur 21 Sur 0 -- -- 64
2019-02-14 15:00:00 16.9 10 Sur 24 Sudeste 0 -- -- 57
2019-02-14 14:00:00 16.6 10 Sur 18 Sur 0 -- -- 59
2019-02-14 13:00:00 16.2 10 Sur 19 Sur 0 -- -- 59
2019-02-14 12:00:00 15.8 10 Sudoeste 18 Sur 0 -- -- 56
2019-02-14 11:00:00 15.4 2 Nordeste 13 Nordeste 0 -- -- 56
2019-02-14 10:00:00 12 8 Nordeste 16 Nordeste 0 -- -- 66
2019-02-14 09:00:00 8.3 8 Nordeste 18 Nordeste 0 -- -- 77
2019-02-14 08:00:00 6.9 9 Nordeste 17 Nordeste 0 -- -- 83
2019-02-14 07:00:00 7.2 9 Nordeste 16 Nordeste 0 -- -- 85
2019-02-14 06:00:00 7.2 8 Nordeste 13 Norte 0 -- -- 90
2019-02-14 05:00:00 6.9 9 Nordeste 13 Nordeste 0 -- -- 92
2019-02-14 04:00:00 7.2 7 Nordeste 14 Nordeste 0 -- -- 92
2019-02-14 03:00:00 7.5 9 Nordeste 13 Nordeste 0 -- -- 94
2019-02-14 02:00:00 7.6 9 Nordeste 13 Nordeste 0 -- -- 95
2019-02-14 01:00:00 7.2 8 Nordeste 11 Nordeste 0 -- -- 96
2019-02-14 00:00:00 7 5 Norte 9 Nordeste 0 -- -- 94
2019-02-13 23:00:00 7.8 6 Nordeste 8 Nordeste 0 -- -- 94
2019-02-13 22:00:00 8.4 5 Nordeste 9 Nordeste 0 -- -- 92
2019-02-13 21:00:00 9.3 6 Norte 10 Norte 0 -- -- 90
2019-02-13 20:00:00 10.9 4 Norte 8 Sudeste 0 -- -- 83
2019-02-13 19:00:00 14 5 Sudeste 17 Sur 0 -- -- 73
2019-02-13 18:00:00 15.5 10 Sur 23 Sur 0 -- -- 67
2019-02-13 17:00:00 16.5 14 Sur 26 Sudeste 0 -- -- 64
2019-02-13 16:00:00 17 15 Sur 28 Sur 0 -- -- 62
2019-02-13 15:00:00 17.2 17 Sur 31 Sudeste 0 -- -- 59
2019-02-13 14:00:00 17.6 12 Sudeste 25 Sudeste 0 -- -- 55
2019-02-13 13:00:00 17.4 14 Sur 23 Sudeste 0 -- -- 53
2019-02-13 12:00:00 17.2 5 Sudeste 12 Sudeste 0 -- -- 43
2019-02-13 11:00:00 15.7 3 Oeste 10 Nordeste 0 -- -- 48
2019-02-13 10:00:00 12.2 6 Este 12 Este 0 -- -- 58
2019-02-13 09:00:00 8.7 8 Nordeste 18 Nordeste 0 -- -- 73
2019-02-13 08:00:00 7.9 9 Nordeste 19 Nordeste 0 -- -- 76
2019-02-13 07:00:00 8 8 Nordeste 16 Nordeste 0 -- -- 80
2019-02-13 06:00:00 7.5 8 Nordeste 15 Nordeste 0 -- -- 86
2019-02-13 05:00:00 7.3 9 Nordeste 12 Nordeste 0 -- -- 90
2019-02-13 04:00:00 7.6 7 Nordeste 12 Nordeste 0 -- -- 89
2019-02-13 03:00:00 8.4 8 Nordeste 14 Nordeste 0 -- -- 89
2019-02-13 02:00:00 8.7 8 Nordeste 15 Nordeste 0 -- -- 89
2019-02-13 01:00:00 8.8 8 Nordeste 13 Nordeste 0 -- -- 90
2019-02-13 00:00:00 9 8 Nordeste 13 Nordeste 0 -- -- 91
2019-02-12 23:00:00 8.6 6 Norte 10 Norte 0 -- -- 90
2019-02-12 22:00:00 9.7 7 Norte 9 Norte 0 -- -- 86
2019-02-12 21:00:00 11.5 2 Nordeste 9 Sudeste 0 -- -- 82
2019-02-12 20:00:00 14.3 6 Sudeste 29 Sudeste 0 -- -- 66
2019-02-12 19:00:00 15.3 11 Sudeste 24 Sudeste 0 -- -- 63
2019-02-12 18:00:00 15.3 11 Sudeste 26 Sudeste 0 -- -- 68
2019-02-12 17:00:00 15.9 13 Sudeste 34 Sudeste 0 -- -- 67
2019-02-12 16:00:00 17 21 Sudeste 33 Sudeste 0 -- -- 62
2019-02-12 15:00:00 17.6 19 Sur 36 Sudeste 0 -- -- 63
2019-02-12 14:00:00 17.3 19 Sudeste 32 Sudeste 0 -- -- 57
2019-02-12 13:00:00 16.5 16 Sudeste 32 Sudeste 0 -- -- 56
2019-02-12 12:00:00 16.1 15 Sudeste 28 Sur 0 -- -- 63
2019-02-12 11:00:00 16.3 13 Sudeste 26 Sudeste 0 -- -- 62
2019-02-12 10:00:00 12 5 Nordeste 14 Nordeste 0 -- -- 83
2019-02-12 09:00:00 10.4 8 Nordeste 14 Nordeste 0 -- -- 86
2019-02-12 08:00:00 9.4 8 Nordeste 12 Nordeste 0 -- -- 89
2019-02-12 07:00:00 9 5 Nordeste 13 Nordeste 0 -- -- 88
2019-02-12 06:00:00 9.7 8 Nordeste 13 Nordeste 0 -- -- 87
2019-02-12 05:00:00 8.9 10 Nordeste 13 Nordeste 0 -- -- 89
2019-02-12 04:00:00 8.9 8 Nordeste 11 Nordeste 0 -- -- 90
2019-02-12 03:00:00 8.7 6 Norte 10 Nordeste 0 -- -- 90
2019-02-12 02:00:00 8.7 6 Nordeste 9 Norte 0 -- -- 90
2019-02-12 01:00:00 10.1 7 Nordeste 11 Nordeste 0 -- -- 86
2019-02-12 00:00:00 10.6 8 Nordeste 13 Nordeste 0 -- -- 85
2019-02-11 23:00:00 10.2 5 Nordeste 9 Nordeste 0 -- -- 87
2019-02-11 22:00:00 11.6 5 Nordeste 10 Nordeste 0 -- -- 85
2019-02-11 21:00:00 11.1 7 Nordeste 10 Norte 0 -- -- 87
2019-02-11 20:00:00 12.2 6 Norte 8 Norte 0 -- -- 85
2019-02-11 19:00:00 14.7 3 Norte 9 Sudoeste 0 -- -- 81
2019-02-11 18:00:00 17 6 Sudoeste 10 Sudoeste 0 -- -- 71
2019-02-11 17:00:00 18.6 7 Sudoeste 12 Sudoeste 0 -- -- 57
2019-02-11 16:00:00 19.2 7 Sudoeste 13 Sur 0 -- -- 55
2019-02-11 15:00:00 19.1 7 Sudoeste 13 Sudoeste 0 -- -- 58
2019-02-11 14:00:00 19.2 9 Sudoeste 14 Sudoeste 0 -- -- 59
2019-02-11 13:00:00 19.2 7 Sudoeste 15 Sur 0 -- -- 55
2019-02-11 12:00:00 18.9 5 Sudoeste 13 Sur 0 -- -- 57
2019-02-11 11:00:00 17.7 8 Sudoeste 13 Sur 0 -- -- 63
2019-02-11 10:00:00 17.6 4 Oeste 11 Oeste 0 -- -- 60
2019-02-11 09:00:00 15.2 4 Sudeste 19 Nordeste 0 -- -- 62
2019-02-11 08:00:00 14.8 12 Nordeste 26 Nordeste 0 -- -- 62
2019-02-11 07:00:00 14.5 11 Nordeste 25 Norte 0 -- -- 64
2019-02-11 06:00:00 15 13 Nordeste 31 Nordeste 0 -- -- 62
2019-02-11 05:00:00 15.2 16 Nordeste 35 Nordeste 0 -- -- 60
2019-02-11 04:00:00 15.1 14 Norte 28 Norte 0 -- -- 60
2019-02-11 03:00:00 14.8 13 Nordeste 29 Nordeste 0 -- -- 60
2019-02-11 02:00:00 15 15 Nordeste 35 Nordeste 0 -- -- 58
2019-02-11 01:00:00 15.8 15 Nordeste 41 Nordeste 0 -- -- 55
2019-02-11 00:00:00 15.5 12 Nordeste 30 Nordeste 0 -- -- 54
2019-02-10 23:00:00 16.1 13 Norte 30 Norte 0 -- -- 50
2019-02-10 22:00:00 15.2 8 Norte 22 Norte 0 -- -- 53
2019-02-10 21:00:00 15.9 5 Norte 37 Norte 0 -- -- 51
2019-02-10 20:00:00 16.5 13 Norte 31 Norte 0 -- -- 48
2019-02-10 19:00:00 17.8 21 Norte 36 Noroeste 0 -- -- 46
2019-02-10 18:00:00 18.8 19 Norte 31 Norte 0 -- -- 42
2019-02-10 17:00:00 19.2 7 Oeste 25 Oeste 0 -- -- 52
2019-02-10 16:00:00 18.8 12 Oeste 24 Noroeste 0 -- -- 54
2019-02-10 15:00:00 18.2 12 Oeste 32 Oeste 0 -- -- 57
2019-02-10 14:00:00 17.4 16 Sudoeste 32 Sudoeste 0 -- -- 63
2019-02-10 13:00:00 17 11 Oeste 20 Oeste 0 -- -- 52
2019-02-10 12:00:00 15.6 8 Oeste 17 Oeste 0 -- -- 67
2019-02-10 11:00:00 16.6 7 Noroeste 17 Nordeste 0 -- -- 52
2019-02-10 10:00:00 13.4 7 Norte 17 Nordeste 0 -- -- 62
2019-02-10 09:00:00 8.5 8 Norte 18 Nordeste 0 -- -- 73
2019-02-10 08:00:00 6.4 9 Nordeste 14 Nordeste 0 -- -- 79
2019-02-10 07:00:00 7.2 6 Nordeste 15 Nordeste 0 -- -- 77
2019-02-10 06:00:00 7 7 Nordeste 15 Nordeste 0 -- -- 81
2019-02-10 05:00:00 6.4 6 Nordeste 14 Nordeste 0 -- -- 87
2019-02-10 04:00:00 6 7 Norte 12 Norte 0 -- -- 91
2019-02-10 03:00:00 6.8 5 Norte 14 Norte 0 -- -- 90
2019-02-10 02:00:00 6.9 9 Norte 11 Norte 0 -- -- 93
2019-02-10 01:00:00 7.9 4 Norte 13 Nordeste 0 -- -- 91
2019-02-10 00:00:00 7.3 6 Norte 9 Nordeste 0 -- -- 95
2019-02-09 23:00:00 8.1 6 Norte 10 Norte 0 -- -- 94
2019-02-09 22:00:00 8.6 8 Norte 12 Norte 0 -- -- 94
2019-02-09 21:00:00 9.1 3 Nordeste 6 Norte 0 -- -- 91
2019-02-09 20:00:00 10 4 Norte 9 Norte 0 -- -- 91
2019-02-09 19:00:00 12.6 5 Norte 7 Norte 0 -- -- 83
2019-02-09 18:00:00 15.7 4 Sudoeste 11 Sudoeste 0 -- -- 77
2019-02-09 17:00:00 16.9 6 Sudoeste 14 Sur 0 -- -- 74
2019-02-09 16:00:00 16.8 7 Sudoeste 15 Sudoeste 0 -- -- 76
2019-02-09 15:00:00 17 8 Sudoeste 14 Sudoeste 0 -- -- 73
2019-02-09 14:00:00 17.2 7 Sudoeste 14 Sudoeste 0 -- -- 65
2019-02-09 13:00:00 17 8 Sudoeste 13 Oeste 0 -- -- 67
2019-02-09 12:00:00 17.2 4 Sudoeste 10 Sudoeste 0 -- -- 59
2019-02-09 11:00:00 16.8 2 Sudoeste 10 Nordeste 0 -- -- 64
2019-02-09 10:00:00 12.4 6 Nordeste 15 Nordeste 0 -- -- 79
2019-02-09 09:00:00 6.7 6 Norte 12 Nordeste 0 -- -- 95
2019-02-09 08:00:00 6.3 7 Norte 14 Norte 0 -- -- 94
2019-02-09 07:00:00 5.5 9 Norte 13 Norte 0 -- -- 99
2019-02-09 06:00:00 5.2 5 Norte 8 Noroeste 0 -- -- 97
2019-02-09 05:00:00 6.1 5 Norte 10 Norte 0 -- -- 97
2019-02-09 04:00:00 5.8 5 Norte 8 Norte 0 -- -- 97
2019-02-09 03:00:00 6 5 Norte 8 Norte 0 -- -- 97
2019-02-09 02:00:00 6.5 4 Norte 9 Norte 0 -- -- 97
2019-02-09 01:00:00 7.2 4 Norte 8 Norte 0 -- -- 97
2019-02-09 00:00:00 8.1 4 Norte 9 Nordeste 0 -- -- 96
2019-02-08 23:00:00 8.7 7 Norte 10 Norte 0 -- -- 96
2019-02-08 22:00:00 9.5 6 Norte 9 Norte 0 -- -- 94
2019-02-08 21:00:00 10.7 5 Norte 10 Norte 0 -- -- 95
2019-02-08 20:00:00 10.5 3 Norte 8 Norte 0 -- -- 90
2019-02-08 19:00:00 12.9 4 Norte 8 Sudoeste 0 -- -- 87
2019-02-08 18:00:00 15.3 5 Sudoeste 10 Sudoeste 0 -- -- 84
2019-02-08 17:00:00 16.4 7 Sudoeste 14 Sudoeste 0 -- -- 78
2019-02-08 16:00:00 17.2 8 Sur 15 Sudoeste 0 -- -- 76
2019-02-08 15:00:00 17.2 8 Sudoeste 17 Oeste 0 -- -- 78
2019-02-08 14:00:00 17.2 11 Sudoeste 17 Sudoeste 0 -- -- 79
2019-02-08 13:00:00 16.6 10 Sudoeste 17 Sudoeste 0 -- -- 80
2019-02-08 12:00:00 15.4 8 Sudoeste 16 Sur 0 -- -- 82
2019-02-08 11:00:00 16 3 Sudoeste 10 Sudoeste 0 -- -- 60
2019-02-08 10:00:00 12.6 7 Nordeste 14 Nordeste 0 -- -- 69
2019-02-08 09:00:00 6.9 7 Nordeste 13 Nordeste 0 -- -- 91
2019-02-08 08:00:00 5.6 7 Nordeste 14 Nordeste 0 -- -- 91
2019-02-08 07:00:00 6.1 6 Nordeste 14 Norte 0 -- -- 92
2019-02-08 06:00:00 5.2 6 Norte 9 Norte 0 -- -- 95
2019-02-08 05:00:00 5.4 4 Norte 8 Norte 0 -- -- 94
2019-02-08 04:00:00 5.7 3 Noroeste 12 Nordeste 0 -- -- 94
2019-02-08 03:00:00 -- 2 Norte 8 Nordeste 0 -- -- --
2019-02-08 02:00:00 6.6 3 Norte 6 Norte 0 -- -- 96
2019-02-08 01:00:00 7.2 3 Norte 8 Norte 0 -- -- 96
2019-02-08 00:00:00 8.4 3 Norte 10 Norte 0 -- -- 96
2019-02-07 23:00:00 8.2 3 Noroeste 8 Nordeste 0 -- -- 95
2019-02-07 22:00:00 8.3 3 Norte 6 Norte 0 -- -- 92
2019-02-07 21:00:00 9.2 3 Noroeste 9 Nordeste 0 -- -- 89
2019-02-07 20:00:00 10.8 3 Este 11 Norte 0 -- -- 88
2019-02-07 19:00:00 12.8 5 Norte 8 Norte 0 -- -- 82
2019-02-07 18:00:00 16 5 Sur 9 Sudoeste 0 -- -- 75
2019-02-07 17:00:00 17.2 6 Sudoeste 13 Sudoeste 0 -- -- 67
2019-02-07 16:00:00 17.2 8 Sudoeste 14 Sudoeste 0 -- -- 66
2019-02-07 15:00:00 17.8 8 Sudoeste 13 Sudoeste 0 -- -- 65
2019-02-07 14:00:00 18 6 Sudoeste 11 Oeste 0 -- -- 66
2019-02-07 13:00:00 17.3 8 Sur 14 Sur 0 -- -- 66
2019-02-07 12:00:00 16.8 8 Oeste 20 Oeste 0 -- -- 64
2019-02-07 11:00:00 16.1 11 Oeste 22 Oeste 0 -- -- 69
2019-02-07 10:00:00 12.6 3 Sudoeste 8 Sudeste 0 -- -- 72
2019-02-07 09:00:00 6 0 Calma 6 Norte 0 -- -- 94
2019-02-07 08:00:00 5.1 3 Noroeste 9 Noroeste 0 -- -- 92
2019-02-07 07:00:00 5.1 3 Norte 8 Norte 0 -- -- 89
2019-02-07 06:00:00 5.6 4 Norte 10 Norte 0 -- -- 88
2019-02-07 05:00:00 5.6 5 Norte 10 Norte 0 -- -- 88
2019-02-07 04:00:00 5.8 6 Norte 12 Norte 0 -- -- 87
2019-02-07 03:00:00 -- 8 Norte 11 Norte 0 -- -- --
2019-02-07 02:00:00 5.8 6 Norte 11 Norte 0 -- -- 85
2019-02-07 01:00:00 5.8 7 Norte 10 Norte 0 -- -- 86
2019-02-07 00:00:00 6 5 Norte 10 Norte 0 -- -- 86
2019-02-06 23:00:00 6.3 4 Norte 8 Norte 0 -- -- 85
2019-02-06 22:00:00 6.9 5 Norte 10 Norte 0 -- -- 83
2019-02-06 21:00:00 7.3 6 Norte 12 Norte 0 -- -- 83
2019-02-06 20:00:00 8.4 5 Norte 8 Norte 0 -- -- 81
2019-02-06 19:00:00 11.7 4 Norte 5 Norte 0 -- -- 70
2019-02-06 18:00:00 16.3 3 Oeste 8 Sudoeste 0 -- -- 36
2019-02-06 17:00:00 17.5 5 Sudoeste 12 Sudoeste 0 -- -- 36
2019-02-06 16:00:00 18.1 7 Sudoeste 13 Sudoeste 0 -- -- 30
2019-02-06 15:00:00 18.4 6 Sudoeste 12 Sudoeste 0 -- -- 34
2019-02-06 14:00:00 17.9 6 Sudoeste 12 Sudoeste 0 -- -- 38
2019-02-06 13:00:00 17.8 6 Sudoeste 10 Sudoeste 0 -- -- 36
2019-02-06 12:00:00 17.8 3 Sudoeste 7 Sudoeste 0 -- -- 30
2019-02-06 11:00:00 16.6 4 Sur 8 Sur 0 -- -- 38
2019-02-06 10:00:00 12.9 3 Norte 12 Nordeste 0 -- -- 58
2019-02-06 09:00:00 8 7 Nordeste 19 Nordeste 0 -- -- 72
2019-02-06 08:00:00 7.7 8 Nordeste 17 Nordeste 0 -- -- 69
2019-02-06 07:00:00 7.7 6 Nordeste 15 Nordeste 0 -- -- 70
2019-02-06 06:00:00 5.6 7 Nordeste 13 Nordeste 0 -- -- 84
2019-02-06 05:00:00 6.5 5 Nordeste 13 Nordeste 0 -- -- 79
2019-02-06 04:00:00 6.6 7 Nordeste 12 Nordeste 0 -- -- 81
2019-02-06 03:00:00 -- 7 Nordeste 11 Norte 0 -- -- --
2019-02-06 02:00:00 7.1 6 Norte 19 Nordeste 0 -- -- 72
2019-02-06 01:00:00 5.5 8 Nordeste 13 Norte 0 -- -- 85
2019-02-06 00:00:00 5.6 7 Nordeste 12 Nordeste 0 -- -- 88
2019-02-05 23:00:00 5.7 8 Norte 11 Norte 0 -- -- 86
2019-02-05 22:00:00 6.3 8 Norte 12 Norte 0 -- -- 86
2019-02-05 21:00:00 6.9 6 Norte 10 Norte 0 -- -- 87
2019-02-05 20:00:00 8.2 5 Norte 10 Norte 0 -- -- 85
2019-02-05 19:00:00 11.8 4 Norte 9 Sudoeste 0 -- -- 69
2019-02-05 18:00:00 14.4 6 Sudoeste 14 Sudoeste 0 -- -- 51
2019-02-05 17:00:00 15.4 8 Sudoeste 16 Oeste 0 -- -- 48
2019-02-05 16:00:00 16.4 8 Sudoeste 17 Sudoeste 0 -- -- 49
2019-02-05 15:00:00 16.5 8 Sudoeste 18 Sudoeste 0 -- -- 40
2019-02-05 14:00:00 16.2 7 Sudoeste 15 Sudoeste 0 -- -- 44
2019-02-05 13:00:00 16 9 Sudoeste 13 Sur 0 -- -- 44
2019-02-05 12:00:00 15.8 5 Sudoeste 11 Sudoeste 0 -- -- 40
2019-02-05 11:00:00 15.6 3 Sur 9 Nordeste 0 -- -- 34
2019-02-05 10:00:00 12.3 7 Nordeste 15 Nordeste 0 -- -- 44
2019-02-05 09:00:00 7.4 7 Nordeste 13 Nordeste 0 -- -- 59
2019-02-05 08:00:00 6 9 Nordeste 15 Nordeste 0 -- -- 69
2019-02-05 07:00:00 5.5 9 Nordeste 15 Nordeste 0 -- -- 74
2019-02-05 06:00:00 5.5 9 Nordeste 16 Nordeste 0 -- -- 77
2019-02-05 05:00:00 6 10 Nordeste 15 Nordeste 0 -- -- 76
2019-02-05 04:00:00 5.8 8 Norte 13 Nordeste 0 -- -- 80
2019-02-05 03:00:00 -- 9 Nordeste 14 Nordeste 0 -- -- --
2019-02-05 02:00:00 6.3 10 Nordeste 13 Nordeste 0 -- -- 82
2019-02-05 01:00:00 6.6 9 Nordeste 13 Nordeste 0 -- -- 83
2019-02-05 00:00:00 6.9 10 Nordeste 14 Nordeste 0 -- -- 85
2019-02-04 23:00:00 6 8 Norte 13 Nordeste 0 -- -- 88
2019-02-04 22:00:00 6 5 Norte 11 Nordeste 0 -- -- 87
2019-02-04 21:00:00 7 7 Norte 11 Nordeste 0 -- -- 84
2019-02-04 20:00:00 8.1 7 Nordeste 12 Norte 0 -- -- 78
2019-02-04 19:00:00 10.9 5 Norte 12 Oeste 0 -- -- 67
2019-02-04 18:00:00 14.1 6 Sudoeste 15 Sudoeste 0 -- -- 43
2019-02-04 17:00:00 15.2 8 Sudoeste 19 Sudoeste 0 -- -- 43
2019-02-04 16:00:00 15.9 8 Sudoeste 16 Sudoeste 0 -- -- 41
2019-02-04 15:00:00 16.1 8 Sudoeste 16 Sudoeste 0 -- -- 41
2019-02-04 14:00:00 15.7 10 Sudoeste 17 Sudoeste 0 -- -- 44
2019-02-04 13:00:00 16.1 10 Sudoeste 17 Sur 0 -- -- 38
2019-02-04 12:00:00 16.7 5 Nordeste 18 Nordeste 0 -- -- 30
2019-02-04 11:00:00 13.6 11 Nordeste 32 Nordeste 0 -- -- 32
2019-02-04 10:00:00 10.6 19 Nordeste 34 Nordeste 0 -- -- 34
2019-02-04 09:00:00 8 21 Nordeste 35 Nordeste 0 -- -- 39
2019-02-04 08:00:00 7.8 19 Nordeste 34 Nordeste 0 -- -- 40
2019-02-04 07:00:00 7.8 12 Nordeste 32 Nordeste 0 -- -- 41
2019-02-04 06:00:00 8 15 Nordeste 31 Nordeste 0 -- -- 39
2019-02-04 05:00:00 8.4 12 Nordeste 26 Nordeste 0 -- -- 38
2019-02-04 04:00:00 8.6 10 Nordeste 27 Nordeste 0 -- -- 38
2019-02-04 03:00:00 -- 10 Nordeste 23 Nordeste 0 -- -- --
2019-02-04 02:00:00 9.4 12 Nordeste 24 Nordeste 0 -- -- 36
2019-02-04 01:00:00 9.6 12 Nordeste 24 Nordeste 0 -- -- 35
2019-02-04 00:00:00 9.4 5 Este 17 Nordeste 0 -- -- 38
2019-02-03 23:00:00 10 13 Nordeste 22 Nordeste 0 -- -- 34
2019-02-03 22:00:00 9.5 10 Nordeste 16 Nordeste 0 -- -- 36
2019-02-03 21:00:00 6.8 5 Este 10 Nordeste 0 -- -- 56
2019-02-03 20:00:00 7.8 0 Calma 14 Noroeste 0 -- -- 63
2019-02-03 19:00:00 11.8 5 Noroeste 24 Norte 0 -- -- 35
2019-02-03 18:00:00 14.4 11 Norte 42 Noroeste 0 -- -- 23
2019-02-03 17:00:00 16.2 12 Norte 33 Nordeste 0 -- -- 18
2019-02-03 16:00:00 16.7 14 Noroeste 31 Noroeste 0 -- -- 28
2019-02-03 15:00:00 15.9 11 Sudoeste 18 Sudoeste 0 -- -- 30
2019-02-03 14:00:00 15.9 10 Sudoeste 21 Sur 0 -- -- 35
2019-02-03 13:00:00 16.1 14 Sur 21 Sur 0 -- -- 31
2019-02-03 12:00:00 16.7 4 Nordeste 17 Nordeste 0 -- -- 27
2019-02-03 11:00:00 14.6 8 Este 22 Nordeste 0 -- -- 33
2019-02-03 10:00:00 11.4 10 Este 29 Nordeste 0 -- -- 39
2019-02-03 09:00:00 7.4 4 Este 11 Nordeste 0 -- -- 50
2019-02-03 08:00:00 7.9 7 Norte 35 Norte 0 -- -- 48
2019-02-03 07:00:00 10.1 21 Norte 40 Norte 0 -- -- 38
2019-02-03 06:00:00 10.3 18 Noroeste 41 Norte 0 -- -- 37
2019-02-03 05:00:00 10.4 23 Noroeste 39 Norte 0 -- -- 37
2019-02-03 04:00:00 10.2 21 Norte 41 Norte 0 -- -- 39
2019-02-03 03:00:00 -- 23 Norte 49 Norte 0 -- -- --
2019-02-03 02:00:00 10.8 26 Norte 47 Norte 0 -- -- 39
2019-02-03 01:00:00 10.6 24 Norte 46 Norte 0 -- -- 44
2019-02-03 00:00:00 11 29 Norte 51 Noroeste 0 -- -- 45
2019-02-02 23:00:00 11.2 14 Norte 40 Nordeste 0 -- -- 45
2019-02-02 22:00:00 9.9 13 Norte 24 Noroeste 0 -- -- 49
2019-02-02 21:00:00 10 9 Norte 20 Oeste 0 -- -- 52
2019-02-02 20:00:00 11.9 12 Noroeste 36 Oeste 0 -- -- 41
2019-02-02 19:00:00 12.2 14 Noroeste 43 Noroeste 0 -- -- 42
2019-02-02 18:00:00 13.8 12 Noroeste 42 Norte 0 -- -- 39
2019-02-02 17:00:00 14.4 17 Noroeste 46 Oeste 0 -- -- 36
2019-02-02 16:00:00 14.6 15 Noroeste 51 Noroeste 0 -- -- 39
2019-02-02 15:00:00 14.8 21 Noroeste 57 Noroeste 0 -- -- 39
2019-02-02 14:00:00 14.4 19 Noroeste 47 Noroeste 0 -- -- 39
2019-02-02 13:00:00 13.9 16 Noroeste 49 Noroeste 0 -- -- 41
2019-02-02 12:00:00 13.2 17 Noroeste 55 Norte 0 -- -- 48
2019-02-02 11:00:00 11.6 13 Noroeste 44 Norte 0 -- -- 55
2019-02-02 10:00:00 12.1 7 Noroeste 26 Sur 0 -- -- 54
2019-02-02 09:00:00 10.1 5 Norte -- -- 0 -- -- 68
2019-02-02 08:00:00 -- -- -- -- -- 0 -- -- --
2019-02-02 07:00:00 10.3 11 Oeste 24 Noroeste 0 -- -- 67
2019-02-02 06:00:00 9.8 0 Calma 27 Noroeste 0 -- -- 75
2019-02-02 05:00:00 11.4 8 Noroeste 29 Noroeste 0 -- -- 63
2019-02-02 04:00:00 11.6 8 Noroeste 26 Noroeste 0 -- -- 57
2019-02-02 03:00:00 -- 14 Norte 35 Noroeste 0 -- -- --
2019-02-02 02:00:00 10.3 6 Oeste 24 Noroeste 0 -- -- 62
2019-02-02 01:00:00 11.3 14 Noroeste 36 Noroeste 0 -- -- 56
2019-02-02 00:00:00 11.1 13 Noroeste 35 Noroeste 0 -- -- 61
2019-02-01 23:00:00 11.9 15 Noroeste 40 Noroeste 0 -- -- 53
2019-02-01 22:00:00 10.2 4 Oeste 18 Noroeste 0 -- -- 79
2019-02-01 21:00:00 12.2 17 Noroeste 49 Oeste 0.2 -- -- 72
2019-02-01 20:00:00 11.7 13 Noroeste 52 Noroeste 0.2 -- -- 71
2019-02-01 19:00:00 13.8 14 Oeste 38 Oeste 0 -- -- 57
2019-02-01 18:00:00 14.6 16 Oeste 47 Noroeste 0 -- -- 53
2019-02-01 17:00:00 17.1 19 Oeste 39 Oeste 0 -- -- 45
2019-02-01 16:00:00 17.8 14 Oeste 46 Noroeste 0 -- -- 48
2019-02-01 15:00:00 18.1 19 Oeste 43 Sudoeste 0 -- -- 47
2019-02-01 14:00:00 17.5 22 Oeste 42 Oeste 0 -- -- 56
2019-02-01 13:00:00 17.7 13 Oeste 30 Sudoeste 0 -- -- 58
2019-02-01 12:00:00 15 11 Norte 39 Noroeste 0 -- -- 73
2019-02-01 11:00:00 -- 9 Noroeste 68 Oeste 3.4 -- -- --
2019-02-01 10:00:00 14.5 32 Oeste 70 Oeste 8.4 -- -- 96
2019-02-01 09:00:00 14.3 22 Oeste 48 Oeste 5.6 -- -- 96
2019-02-01 08:00:00 14.6 20 Oeste 77 Noroeste 1.2 -- -- 94
2019-02-01 07:00:00 14.4 25 Sudoeste 60 Oeste 1.2 -- -- 95
2019-02-01 06:00:00 14.1 21 Oeste 51 Oeste 5.8 -- -- 97
2019-02-01 05:00:00 14.1 12 Oeste 44 Oeste 1.4 -- -- 95
2019-02-01 04:00:00 14.7 17 Oeste 42 Oeste 0 -- -- 90
2019-02-01 03:00:00 -- 16 Oeste 39 Oeste 0.6 -- -- --
2019-02-01 02:00:00 14.1 17 Oeste 40 Noroeste 1.8 -- -- 93
2019-02-01 01:00:00 14.5 17 Noroeste 37 Noroeste 0.2 -- -- 87
2019-02-01 00:00:00 15 12 Oeste 37 Noroeste 0 -- -- 81
2019-01-31 23:00:00 15.3 18 Oeste 44 Oeste 0 -- -- 78
2019-01-31 22:00:00 15.4 17 Noroeste 36 Oeste 0 -- -- 74
2019-01-31 21:00:00 15.5 18 Oeste 37 Oeste 0 -- -- 75
2019-01-31 20:00:00 15.2 14 Oeste 40 Oeste 0 -- -- 82
2019-01-31 19:00:00 15.4 14 Oeste 31 Oeste 0 -- -- 81
2019-01-31 18:00:00 15.7 10 Oeste 36 Oeste 0 -- -- 79
2019-01-31 17:00:00 15.7 15 Oeste 36 Oeste 0 -- -- 81
2019-01-31 16:00:00 15.9 16 Oeste 42 Oeste 0 -- -- 78
2019-01-31 15:00:00 16.7 22 Oeste 42 Oeste 0 -- -- 76
2019-01-31 14:00:00 16.1 24 Oeste 42 Oeste 0 -- -- 80
2019-01-31 13:00:00 17.1 22 Oeste 41 Oeste 0 -- -- 78
2019-01-31 12:00:00 16 18 Oeste 42 Sudoeste 0 -- -- 82
2019-01-31 11:00:00 16.8 24 Oeste 39 Noroeste 0 -- -- 77
2019-01-31 10:00:00 14.7 8 Oeste 19 Oeste 0 -- -- 85
2019-01-31 09:00:00 11.9 4 Nordeste 12 Norte 0 -- -- 86
2019-01-31 08:00:00 13.5 8 Norte 29 Oeste 0 -- -- 81
2019-01-31 07:00:00 12.9 2 Norte 28 Oeste 0 -- -- 78
2019-01-31 06:00:00 14.9 9 Oeste 29 Oeste 0 -- -- 74
2019-01-31 05:00:00 14.7 14 Oeste 31 Oeste 0 -- -- 74
2019-01-31 04:00:00 14.6 12 Noroeste 24 Noroeste 0 -- -- 72
2019-01-31 03:00:00 -- 7 Noroeste 24 Noroeste 0 -- -- --
2019-01-31 02:00:00 13.9 9 Noroeste 25 Oeste 0 -- -- 77
2019-01-31 01:00:00 12.5 9 Oeste 25 Oeste 0 -- -- 83
2019-01-31 00:00:00 12.7 2 Norte 11 Oeste 0 -- -- 72
2019-01-30 23:00:00 13.3 4 Oeste 12 Oeste 0 -- -- 68
2019-01-30 22:00:00 13.3 3 Noroeste 9 Sudoeste 0 -- -- 72
2019-01-30 21:00:00 14.6 4 Sudeste 24 Noroeste 0 -- -- 54
2019-01-30 20:00:00 15.3 8 Norte 36 Noroeste 0 -- -- 47
2019-01-30 19:00:00 14.4 10 Norte 24 Noroeste 0 -- -- 47
2019-01-30 18:00:00 15.8 15 Norte 26 Noroeste 0 -- -- 37
2019-01-30 17:00:00 16.4 11 Noroeste 20 Norte 0 -- -- 37
2019-01-30 16:00:00 16.8 15 Norte 37 Noroeste 0 -- -- 33
2019-01-30 15:00:00 17 19 Noroeste 36 Noroeste 0 -- -- 33
2019-01-30 14:00:00 18.6 17 Noroeste 46 Noroeste 0 -- -- 34
2019-01-30 13:00:00 17.3 22 Noroeste 49 Noroeste 0 -- -- 36
2019-01-30 12:00:00 16.4 24 Noroeste 44 Norte 0 -- -- 37
2019-01-30 11:00:00 15.4 16 Noroeste 40 Oeste 0 -- -- 44
2019-01-30 10:00:00 15.3 13 Noroeste 37 Noroeste 0 -- -- 42
2019-01-30 09:00:00 15.1 18 Noroeste 40 Norte 0 -- -- 41
2019-01-30 08:00:00 14.9 17 Norte 38 Noroeste 0 -- -- 44
2019-01-30 07:00:00 15.2 22 Noroeste 41 Noroeste 0 -- -- 44
2019-01-30 06:00:00 14.9 16 Norte 36 Norte 0 -- -- 46
2019-01-30 05:00:00 15 18 Noroeste 35 Noroeste 0 -- -- 47
2019-01-30 04:00:00 15.2 18 Norte 40 Noroeste 0 -- -- 45
2019-01-30 03:00:00 15.2 15 Noroeste 37 Noroeste 0 -- -- 51
2019-01-30 02:00:00 15.1 13 Noroeste 30 Noroeste 0 -- -- 54
2019-01-30 01:00:00 15.4 13 Noroeste 31 Noroeste 0 -- -- 51
2019-01-30 00:00:00 15.6 15 Noroeste 35 Noroeste 0 -- -- 50
2019-01-29 23:00:00 15.9 19 Noroeste 51 Oeste 0 -- -- 48
2019-01-29 22:00:00 16 19 Noroeste 50 Noroeste 0 -- -- 44
2019-01-29 21:00:00 16 19 Noroeste 51 Noroeste 0 -- -- 43
2019-01-29 20:00:00 16 19 Noroeste 49 Noroeste 0 -- -- 44
2019-01-29 19:00:00 15.8 23 Noroeste 47 Noroeste 0 -- -- 43
2019-01-29 18:00:00 15.8 30 Noroeste 62 Norte 0 -- -- 44
2019-01-29 17:00:00 17 29 Noroeste 59 Norte 0 -- -- 42
2019-01-29 16:00:00 18.8 33 Noroeste 60 Noroeste 0 -- -- 36
2019-01-29 15:00:00 19 31 Noroeste 70 Noroeste 0 -- -- 35
2019-01-29 14:00:00 19.6 31 Noroeste 50 Noroeste 0 -- -- 34
2019-01-29 13:00:00 19.2 13 Noroeste 45 Noroeste 0 -- -- 35
2019-01-29 12:00:00 18.8 17 Noroeste 32 Nordeste 0 -- -- 33
2019-01-29 11:00:00 17.5 8 Norte 32 Norte 0 -- -- 37
2019-01-29 10:00:00 16.2 17 Norte 35 Noroeste 0 -- -- 41
2019-01-29 09:00:00 14.1 14 Norte 29 Nordeste 0 -- -- 47
2019-01-29 08:00:00 13.7 15 Norte 37 Norte 0 -- -- 48
2019-01-29 07:00:00 13.4 14 Noroeste 36 Noroeste 0 -- -- 50
2019-01-29 06:00:00 13.3 18 Norte 30 Norte 0 -- -- 52
2019-01-29 05:00:00 13.2 9 Nordeste 22 Norte 0 -- -- 51
2019-01-29 04:00:00 12.8 10 Norte 21 Nordeste 0 -- -- 55
2019-01-29 03:00:00 -- 8 Nordeste 17 Nordeste 0 -- -- --
2019-01-29 02:00:00 14.6 4 Nordeste 24 Nordeste 0 -- -- 47
2019-01-29 01:00:00 15.4 15 Nordeste 41 Nordeste 0 -- -- 43
2019-01-29 00:00:00 15.6 14 Nordeste 44 Norte 0 -- -- 44
2019-01-28 23:00:00 15.8 31 Norte 69 Noroeste 0 -- -- 45
2019-01-28 22:00:00 15.5 37 Noroeste 57 Norte 0 -- -- 46
2019-01-28 21:00:00 15.5 30 Norte 69 Norte 0 -- -- 45
2019-01-28 20:00:00 15.5 22 Norte 71 Nordeste 0 -- -- 44
2019-01-28 19:00:00 15.6 16 Noroeste 39 Noroeste 0 -- -- 41
2019-01-28 18:00:00 16.1 8 Norte 26 Nordeste 0 -- -- 40
2019-01-28 17:00:00 18.3 13 Norte 39 Noroeste 0 -- -- 30
2019-01-28 16:00:00 20.2 20 Noroeste 48 Noroeste 0 -- -- 21
2019-01-28 15:00:00 19.2 10 Oeste 31 Oeste 0 -- -- 35
2019-01-28 14:00:00 16.8 18 Oeste 38 Oeste 0 -- -- 46
2019-01-28 13:00:00 16 17 Sudoeste 34 Sudoeste 0 -- -- 46
2019-01-28 12:00:00 17 10 Oeste 25 Noroeste 0 -- -- 40
2019-01-28 11:00:00 16.1 14 Nordeste 27 Nordeste 0 -- -- 36
2019-01-28 10:00:00 14.2 8 Norte 26 Norte 0 -- -- 38
2019-01-28 09:00:00 10.9 11 Norte 23 Nordeste 0 -- -- 44
2019-01-28 08:00:00 10.6 13 Nordeste 34 Nordeste 0 -- -- 49
2019-01-28 07:00:00 11.1 19 Nordeste 32 Norte 0 -- -- 47
2019-01-28 06:00:00 11.1 16 Nordeste 34 Norte 0 -- -- 47
2019-01-28 05:00:00 12.2 18 Norte 35 Norte 0 -- -- 43
2019-01-28 04:00:00 12.2 22 Norte 37 Norte 0 -- -- 44
2019-01-28 03:00:00 -- 16 Nordeste 33 Nordeste 0 -- -- --
2019-01-28 02:00:00 12.5 9 Nordeste 19 Nordeste 0 -- -- 42
2019-01-28 01:00:00 13 11 Nordeste 26 Norte 0 -- -- 40
2019-01-28 00:00:00 13.5 8 Nordeste 37 Norte 0 -- -- 37
2019-01-27 23:00:00 14.5 20 Norte 40 Norte 0 -- -- 35
2019-01-27 22:00:00 14.4 20 Norte 49 Norte 0 -- -- 39
2019-01-27 21:00:00 15 28 Norte 62 Norte 0 -- -- 39
2019-01-27 20:00:00 15.4 28 Norte 67 Norte 0 -- -- 41
2019-01-27 19:00:00 15.4 21 Noroeste 58 Noroeste 0 -- -- 39
2019-01-27 18:00:00 17.1 21 Norte 43 Norte 0 -- -- 39
2019-01-27 17:00:00 19.3 18 Noroeste 40 Noroeste 0 -- -- 29
2019-01-27 16:00:00 20.4 23 Norte 40 Noroeste 0 -- -- 33
2019-01-27 15:00:00 21.3 19 Noroeste 35 Noroeste 0 -- -- 25
2019-01-27 14:00:00 20.4 16 Noroeste 36 Noroeste 0 -- -- 30
2019-01-27 13:00:00 20.3 15 Noroeste 35 Noroeste 0 -- -- 35
2019-01-27 12:00:00 18.9 18 Noroeste 32 Noroeste 0 -- -- 40
2019-01-27 11:00:00 18.1 15 Noroeste 37 Noroeste 0 -- -- 41
2019-01-27 10:00:00 16.2 12 Norte 21 Nordeste 0 -- -- 55
2019-01-27 09:00:00 13.5 14 Norte 29 Nordeste 0 -- -- 64
2019-01-27 08:00:00 12.8 17 Norte 27 Norte 0 -- -- 72
2019-01-27 07:00:00 -- 6 Noroeste 15 Noroeste 0 -- -- --
2019-01-27 06:00:00 7.2 3 Oeste 12 Oeste 0 -- -- 98
2019-01-27 05:00:00 6.3 4 Norte 9 Nordeste 0 -- -- 96
2019-01-27 04:00:00 6.3 4 Norte 10 Nordeste 0 -- -- 97
2019-01-27 03:00:00 -- 4 Norte 8 Noroeste 0 -- -- --
2019-01-27 02:00:00 6.8 4 Norte 11 Nordeste 0 -- -- 96
2019-01-27 01:00:00 7 2 Nordeste 7 Nordeste 0 -- -- 95
2019-01-27 00:00:00 7.8 3 Noroeste 8 Nordeste 0 -- -- 95
2019-01-26 23:00:00 8.8 5 Nordeste 7 Nordeste 0 -- -- 95
2019-01-26 22:00:00 9.9 3 Nordeste 5 Norte 0 -- -- 95
2019-01-26 21:00:00 9.9 3 Norte 7 Nordeste 0 -- -- 92
2019-01-26 20:00:00 12.6 4 Norte 7 Nordeste 0 -- -- 94
2019-01-26 19:00:00 13.6 0 Calma 8 Sudoeste 0 -- -- 88
2019-01-26 18:00:00 15.9 6 Sudoeste 10 Sudoeste 0 -- -- 81
2019-01-26 17:00:00 17.9 5 Sur 13 Sur 0 -- -- 68
2019-01-26 16:00:00 18.2 7 Sudoeste 12 Sur 0 -- -- 61
2019-01-26 15:00:00 17.1 7 Sudoeste 17 Sur 0 -- -- 77
2019-01-26 14:00:00 18.5 6 Sudoeste 12 Sudoeste 0 -- -- 67
2019-01-26 13:00:00 17.4 5 Sur 15 Sudoeste 0 -- -- 76
2019-01-26 12:00:00 16.9 7 Sudoeste 15 Sur 0 -- -- 78
2019-01-26 11:00:00 17 7 Sur 12 Sur 0 -- -- 75
2019-01-26 10:00:00 15.5 5 Este 27 Nordeste 0 -- -- 52
2019-01-26 09:00:00 12 13 Nordeste 23 Nordeste 0 -- -- 60
2019-01-26 08:00:00 12.5 9 Nordeste 24 Nordeste 0 -- -- 57
2019-01-26 07:00:00 -- 13 Nordeste 31 Nordeste 0 -- -- --
2019-01-26 06:00:00 13.5 9 Este 20 Nordeste 0 -- -- 55
2019-01-26 05:00:00 13.5 12 Nordeste 21 Nordeste 0 -- -- 55
2019-01-26 04:00:00 13.6 12 Nordeste 28 Nordeste 0 -- -- 56
2019-01-26 03:00:00 -- 13 Nordeste 25 Nordeste 0 -- -- --
2019-01-26 02:00:00 13.6 17 Nordeste 29 Nordeste 0 -- -- 61
2019-01-26 01:00:00 8.9 6 Nordeste 13 Nordeste 0 -- -- 93
2019-01-26 00:00:00 8.4 3 Norte 9 Norte 0 -- -- 93
2019-01-25 23:00:00 8.5 3 Norte 10 Nordeste 0 -- -- 92
2019-01-25 22:00:00 9.2 3 Norte 9 Norte 0 -- -- 90
2019-01-25 21:00:00 10.1 4 Nordeste 7 Norte 0 -- -- 89
2019-01-25 20:00:00 11.3 3 Norte 10 Norte 0 -- -- 86
2019-01-25 19:00:00 13.6 5 Norte 7 Noroeste 0 -- -- 78
2019-01-25 18:00:00 18.2 0 Calma 6 Sur 0 -- -- 58
2019-01-25 17:00:00 19.2 5 Sur 10 Sur 0 -- -- 52
2019-01-25 16:00:00 19.7 6 Sudoeste 14 Sudoeste 0 -- -- 50
2019-01-25 15:00:00 19.3 9 Sudoeste 17 Sudoeste 0 -- -- 57
2019-01-25 14:00:00 19.9 8 Sudoeste 14 Sur 0 -- -- 54
2019-01-25 13:00:00 20.3 9 Sur 15 Sur 0 -- -- 46
2019-01-25 12:00:00 20.7 8 Sudeste 25 Nordeste 0 -- -- 39
2019-01-25 11:00:00 18.8 12 Nordeste 28 Nordeste 0 -- -- 42
2019-01-25 10:00:00 16.2 18 Nordeste 33 Nordeste 0 -- -- 48
2019-01-25 09:00:00 14.1 15 Nordeste 28 Nordeste 0 -- -- 55
2019-01-25 08:00:00 14.3 18 Nordeste 31 Nordeste 0 -- -- 53
2019-01-25 07:00:00 -- 16 Nordeste 33 Nordeste 0 -- -- --
2019-01-25 06:00:00 14.9 10 Nordeste 31 Nordeste 0 -- -- 52
2019-01-25 05:00:00 14.7 10 Nordeste 34 Nordeste 0 -- -- 53
2019-01-25 04:00:00 14.9 17 Nordeste 30 Nordeste 0 -- -- 53
2019-01-25 03:00:00 15.5 12 Nordeste 31 Nordeste 0 -- -- 51
2019-01-25 02:00:00 15.2 13 Nordeste 32 Nordeste 0 -- -- 52
2019-01-25 01:00:00 15.6 18 Nordeste 29 Nordeste 0 -- -- 51
2019-01-25 00:00:00 16 15 Nordeste 31 Nordeste 0 -- -- 50
2019-01-24 23:00:00 16.2 13 Nordeste 32 Nordeste 0 -- -- 49
2019-01-24 22:00:00 16.6 11 Este 27 Nordeste 0 -- -- 48
2019-01-24 21:00:00 16.9 14 Nordeste 29 Nordeste 0 -- -- 48
2019-01-24 20:00:00 16.7 10 Nordeste 26 Nordeste 0 -- -- 49
2019-01-24 19:00:00 17.4 14 Nordeste 28 Nordeste 0 -- -- 47
2019-01-24 18:00:00 19.3 11 Nordeste 30 Nordeste 0 -- -- 41
2019-01-24 17:00:00 20.6 16 Nordeste 36 Nordeste 0 -- -- 39
2019-01-24 16:00:00 21.4 17 Nordeste 33 Nordeste 0 -- -- 36
2019-01-24 15:00:00 21.2 18 Nordeste 44 Nordeste 0 -- -- 36
2019-01-24 14:00:00 21.1 17 Nordeste 39 Nordeste 0 -- -- 35
2019-01-24 13:00:00 20.2 19 Nordeste 39 Nordeste 0 -- -- 40
2019-01-24 12:00:00 19.1 10 Este 40 Nordeste 0 -- -- 43
2019-01-24 11:00:00 17.7 18 Nordeste 39 Nordeste 0 -- -- 47
2019-01-24 10:00:00 17.1 23 Nordeste 48 Nordeste 0 -- -- 45
2019-01-24 09:00:00 15.9 24 Nordeste 52 Nordeste 0 -- -- 48
2019-01-24 08:00:00 15.4 32 Norte 81 Norte 0 -- -- 51
2019-01-24 07:00:00 15.3 49 Norte 84 Norte 0 -- -- 53
2019-01-24 06:00:00 15 33 Norte 63 Norte 0 -- -- 56
2019-01-24 05:00:00 15.3 34 Norte 70 Noroeste 0 -- -- 53
2019-01-24 04:00:00 15.4 39 Norte 68 Norte 0 -- -- 52
2019-01-24 03:00:00 -- 38 Norte 71 Noroeste 0 -- -- --
2019-01-24 02:00:00 15.6 27 Norte 55 Norte 0 -- -- 51
2019-01-24 01:00:00 16 35 Noroeste 63 Noroeste 0 -- -- 49
2019-01-24 00:00:00 16.1 31 Noroeste 56 Noroeste 0 -- -- 49
2019-01-23 23:00:00 16.3 21 Noroeste 44 Noroeste 0 -- -- 49
2019-01-23 22:00:00 15.7 21 Noroeste 40 Noroeste 0 -- -- 51
2019-01-23 21:00:00 16.1 23 Norte 51 Noroeste 0 -- -- 48
2019-01-23 20:00:00 16 25 Noroeste 54 Noroeste 0 -- -- 48
2019-01-23 19:00:00 15.6 22 Norte 46 Norte 0 -- -- 50
2019-01-23 18:00:00 15.6 26 Noroeste 63 Noroeste 0 -- -- 49
2019-01-23 17:00:00 15.3 26 Norte 42 Noroeste 0 -- -- 49
2019-01-23 16:00:00 14.8 15 Norte 44 Nordeste 0 -- -- 52
2019-01-23 15:00:00 15.1 17 Noroeste 46 Oeste 0 -- -- 49
2019-01-23 14:00:00 15 19 Noroeste 43 Noroeste 0 -- -- 49
2019-01-23 13:00:00 14.6 14 Noroeste 34 Noroeste 0 -- -- 50
2019-01-23 12:00:00 15.9 17 Norte 42 Norte 0 -- -- 47
2019-01-23 11:00:00 14.9 25 Noroeste 44 Nordeste 0 -- -- 47
2019-01-23 10:00:00 14 21 Norte 51 Norte 0 -- -- 50
2019-01-23 09:00:00 13 22 Norte 45 Norte 0 -- -- 50
2019-01-23 08:00:00 13 18 Norte 49 Nordeste 0 -- -- 48
2019-01-23 07:00:00 13.3 16 Noroeste 37 Noroeste 0 -- -- 46
2019-01-23 06:00:00 13.7 13 Noroeste 34 Norte 0 -- -- 44
2019-01-23 05:00:00 14 21 Noroeste 39 Noroeste 0 -- -- 45
2019-01-23 04:00:00 14.2 14 Oeste 41 Oeste 0 -- -- 47
2019-01-23 03:00:00 13.9 12 Noroeste 26 Norte 0 -- -- 53
2019-01-23 02:00:00 13.7 12 Oeste 27 Oeste 0 -- -- 56
2019-01-23 01:00:00 13.9 10 Oeste 30 Noroeste 0 -- -- 52
2019-01-23 00:00:00 13 8 Noroeste 25 Oeste 0 -- -- 55
2019-01-22 23:00:00 13 7 Noroeste 20 Oeste 0 -- -- 53
2019-01-22 22:00:00 12.8 9 Norte 29 Noroeste 0 -- -- 50
2019-01-22 21:00:00 12.9 14 Noroeste 30 Noroeste 0 -- -- 47
2019-01-22 20:00:00 12.6 11 Noroeste 29 Oeste 0 -- -- 45
2019-01-22 19:00:00 12.3 10 Noroeste 31 Oeste 0 -- -- 43
2019-01-22 18:00:00 13.4 15 Noroeste 36 Norte 0 -- -- 37
2019-01-22 17:00:00 14.8 15 Noroeste 36 Noroeste 0 -- -- 33
2019-01-22 16:00:00 15.7 22 Noroeste 38 Noroeste 0 -- -- 31
2019-01-22 15:00:00 16.1 24 Norte 41 Norte 0 -- -- 32
2019-01-22 14:00:00 16.3 18 Norte 46 Norte 0 -- -- 32
2019-01-22 13:00:00 15.7 15 Noroeste 30 Noroeste 0 -- -- 32
2019-01-22 12:00:00 13.3 12 Norte 23 Nordeste 0 -- -- 39
2019-01-22 11:00:00 12.5 8 Norte 39 Noroeste 0 -- -- 41
2019-01-22 10:00:00 12.5 14 Noroeste 36 Noroeste 0 -- -- 35
2019-01-22 09:00:00 12.1 17 Noroeste 32 Norte 0 -- -- 35
2019-01-22 08:00:00 11.5 17 Noroeste 33 Nordeste 0 -- -- 35
2019-01-22 07:00:00 8.6 10 Noroeste 17 Oeste 0 -- -- 47
2019-01-22 06:00:00 5.1 9 Norte 14 Nordeste 0 -- -- 67
2019-01-22 05:00:00 6.8 10 Nordeste 15 Nordeste 0 -- -- 56
2019-01-22 04:00:00 6 7 Nordeste 15 Nordeste 0 -- -- 63
2019-01-22 03:00:00 6 10 Nordeste 13 Nordeste 0 -- -- 64
2019-01-22 02:00:00 5.9 5 Norte 14 Nordeste 0 -- -- 69
2019-01-22 01:00:00 7.9 4 Nordeste 13 Nordeste 0 -- -- 49
2019-01-22 00:00:00 10.3 10 Nordeste 21 Nordeste 0 -- -- 37
2019-01-21 23:00:00 13.3 21 Norte 33 Nordeste 0 -- -- 24
2019-01-21 22:00:00 13.1 17 Norte 35 Nordeste 0 -- -- 25
2019-01-21 21:00:00 13.1 15 Norte 39 Norte 0 -- -- 29
2019-01-21 20:00:00 13.8 12 Nordeste 37 Nordeste 0 -- -- 26
2019-01-21 19:00:00 14 19 Norte 38 Norte 0 -- -- 32
2019-01-21 18:00:00 15.1 22 Norte 44 Nordeste 0 -- -- 28
2019-01-21 17:00:00 16.6 19 Norte 43 Norte 0 -- -- 28
2019-01-21 16:00:00 17.8 14 Norte 34 Norte 0 -- -- 26
2019-01-21 15:00:00 18.2 4 Sur 22 Sur 0 -- -- 29
2019-01-21 14:00:00 16.9 13 Sur 21 Oeste 0 -- -- 35
2019-01-21 13:00:00 16.1 12 Sudoeste 19 Sur 0 -- -- 41
2019-01-21 12:00:00 16.4 14 Sur 21 Sur 0 -- -- 36
2019-01-21 11:00:00 15.3 6 Nordeste 21 Nordeste 0 -- -- 38
2019-01-21 10:00:00 12.6 9 Nordeste 28 Nordeste 0 -- -- 43
2019-01-21 09:00:00 10.7 5 Este 15 Nordeste 0 -- -- 45
2019-01-21 08:00:00 10.5 7 Nordeste 20 Nordeste 0 -- -- 46
2019-01-21 07:00:00 -- 10 Nordeste 22 Nordeste 0 -- -- --
2019-01-21 06:00:00 11.3 5 Este 16 Nordeste 0 -- -- 44
2019-01-21 05:00:00 11.5 5 Nordeste 19 Norte 0 -- -- 44
2019-01-21 04:00:00 11.6 8 Nordeste 18 Nordeste 0 -- -- 42
2019-01-21 03:00:00 12.3 15 Nordeste 32 Nordeste 0 -- -- 40
2019-01-21 02:00:00 12.7 10 Nordeste 36 Norte 0 -- -- 38
2019-01-21 01:00:00 14.1 17 Nordeste 38 Nordeste 0 -- -- 31
2019-01-21 00:00:00 14.3 13 Nordeste 30 Nordeste 0 -- -- 35
2019-01-20 23:00:00 14.4 16 Nordeste 40 Nordeste 0 -- -- 35
2019-01-20 22:00:00 15.5 23 Nordeste 49 Nordeste 0 -- -- 27
2019-01-20 21:00:00 15.3 20 Nordeste 54 Nordeste 0 -- -- 32
2019-01-20 20:00:00 15.6 26 Norte 66 Noroeste 0 -- -- 33
2019-01-20 19:00:00 15.1 26 Norte 66 Norte 0 -- -- 46
2019-01-20 18:00:00 16.1 40 Norte 74 Norte 0 -- -- 45
2019-01-20 17:00:00 16.3 31 Norte 55 Noroeste 0 -- -- 52
2019-01-20 16:00:00 17.2 22 Noroeste 38 Noroeste 0 -- -- 53
2019-01-20 15:00:00 18.9 11 Norte 35 Norte 0 -- -- 56
2019-01-20 14:00:00 19.2 17 Noroeste 41 Oeste 0 -- -- 56
2019-01-20 13:00:00 18.1 13 Oeste 30 Oeste 0 -- -- 69
2019-01-20 12:00:00 16.9 14 Oeste 26 Oeste 0 -- -- 74
2019-01-20 11:00:00 14.2 0 Calma 9 Noroeste 0.2 -- -- 93
2019-01-20 10:00:00 11.5 3 Nordeste 9 Nordeste 0 -- -- 98
2019-01-20 09:00:00 9.4 6 Nordeste 12 Nordeste 0 -- -- 98
2019-01-20 08:00:00 8.4 5 Norte 8 Nordeste 0 -- -- 96
2019-01-20 07:00:00 -- 5 Oeste 9 Nordeste 0 -- -- --
2019-01-20 06:00:00 9 6 Norte 10 Norte 0 -- -- 96
2019-01-20 05:00:00 9.8 7 Nordeste 13 Nordeste 0 -- -- 95
2019-01-20 04:00:00 11.1 3 Noroeste 8 Norte 0 -- -- 95
2019-01-20 03:00:00 11.7 4 Nordeste 9 Norte 0.2 -- -- 94
2019-01-20 02:00:00 11.7 5 Nordeste 11 Norte 0.2 -- -- 92
2019-01-20 01:00:00 13 3 Norte 19 Oeste 0.8 -- -- 87
2019-01-20 00:00:00 13.8 8 Oeste 21 Sudoeste 0 -- -- 77
2019-01-19 23:00:00 11.8 0 Calma 13 Noroeste 0 -- -- 84
2019-01-19 22:00:00 12.9 3 Sur 17 Oeste 0 -- -- 78
2019-01-19 21:00:00 14.1 10 Oeste 22 Oeste 0 -- -- 72
2019-01-19 20:00:00 13.6 4 Oeste 15 Sudoeste 0 -- -- 79
2019-01-19 19:00:00 14.7 6 Oeste 19 Oeste 0 -- -- 71
2019-01-19 18:00:00 14.7 7 Sudoeste 17 Oeste 0 -- -- 73
2019-01-19 17:00:00 14.8 4 Oeste 16 Oeste 0 -- -- 73
2019-01-19 16:00:00 14.8 9 Oeste 19 Oeste 0 -- -- 70
2019-01-19 15:00:00 14.5 10 Sudoeste 26 Oeste 0 -- -- 78
2019-01-19 14:00:00 15.3 9 Sudoeste 21 Sudoeste 0 -- -- 76
2019-01-19 13:00:00 15.5 8 Sudoeste 14 Sudoeste 0 -- -- 56
2019-01-19 12:00:00 14.9 0 Calma 8 Nordeste 0 -- -- 56
2019-01-19 11:00:00 13.4 2 Este 8 Sur 0 -- -- 64
2019-01-19 10:00:00 11.7 2 Norte 12 Norte 0 -- -- 65
2019-01-19 09:00:00 11 3 Nordeste 12 Nordeste 0 -- -- 62
2019-01-19 08:00:00 11.3 5 Norte 19 Noroeste 0 -- -- 59
2019-01-19 07:00:00 -- 3 Este 47 Noroeste 0 -- -- --
2019-01-19 06:00:00 12.5 20 Norte 30 Noroeste 0 -- -- 47
2019-01-19 05:00:00 12.3 15 Noroeste 29 Noroeste 0 -- -- 51
2019-01-19 04:00:00 12.4 12 Noroeste 25 Noroeste 0 -- -- 52
2019-01-19 03:00:00 12.8 10 Noroeste 22 Noroeste 0 -- -- 52
2019-01-19 02:00:00 12.9 11 Norte 35 Noroeste 0 -- -- 55
2019-01-19 01:00:00 13.2 15 Noroeste 32 Noroeste 0 -- -- 51
2019-01-19 00:00:00 13.6 17 Noroeste 38 Noroeste 0 -- -- 46